sensor_id;sensor_type;location;lat;lon;timestamp;temperature;humidity
32147;DHT22;32190;49.112;8.598;2023-06-26T00:03:31;28.30;38.20
32147;DHT22;32190;49.112;8.598;2023-06-26T00:09:23;28.10;38.20
32147;DHT22;32190;49.112;8.598;2023-06-26T00:15:13;28.00;38.30
32147;DHT22;32190;49.112;8.598;2023-06-26T00:21:04;27.90;38.40
32147;DHT22;32190;49.112;8.598;2023-06-26T00:26:55;27.70;38.40
32147;DHT22;32190;49.112;8.598;2023-06-26T00:32:45;27.40;38.70
32147;DHT22;32190;49.112;8.598;2023-06-26T00:38:36;27.00;39.10
32147;DHT22;32190;49.112;8.598;2023-06-26T00:44:26;26.60;39.60
32147;DHT22;32190;49.112;8.598;2023-06-26T00:50:18;26.40;39.80
32147;DHT22;32190;49.112;8.598;2023-06-26T00:56:08;26.20;39.80
32147;DHT22;32190;49.112;8.598;2023-06-26T01:02:00;26.00;40.00
32147;DHT22;32190;49.112;8.598;2023-06-26T01:07:51;25.90;40.10
32147;DHT22;32190;49.112;8.598;2023-06-26T01:13:42;25.70;40.20
32147;DHT22;32190;49.112;8.598;2023-06-26T01:19:36;25.60;40.50
32147;DHT22;32190;49.112;8.598;2023-06-26T01:31:34;25.10;41.40
32147;DHT22;32190;49.112;8.598;2023-06-26T01:37:25;25.10;41.10
32147;DHT22;32190;49.112;8.598;2023-06-26T01:55:42;25.40;41.00
32147;DHT22;32190;49.112;8.598;2023-06-26T02:01:35;25.50;41.00
32147;DHT22;32190;49.112;8.598;2023-06-26T02:07:26;25.60;40.70
32147;DHT22;32190;49.112;8.598;2023-06-26T02:13:16;25.60;40.70
32147;DHT22;32190;49.112;8.598;2023-06-26T02:19:07;25.60;40.80
32147;DHT22;32190;49.112;8.598;2023-06-26T02:24:58;25.60;40.90
32147;DHT22;32190;49.112;8.598;2023-06-26T02:30:48;25.50;40.80
32147;DHT22;32190;49.112;8.598;2023-06-26T02:36:39;25.50;40.90
32147;DHT22;32190;49.112;8.598;2023-06-26T02:42:32;25.50;41.00
32147;DHT22;32190;49.112;8.598;2023-06-26T02:48:23;25.40;41.00
32147;DHT22;32190;49.112;8.598;2023-06-26T02:54:13;25.40;40.90
32147;DHT22;32190;49.112;8.598;2023-06-26T03:00:04;25.40;40.90
32147;DHT22;32190;49.112;8.598;2023-06-26T03:05:58;25.40;41.00
32147;DHT22;32190;49.112;8.598;2023-06-26T03:11:49;25.30;41.00
32147;DHT22;32190;49.112;8.598;2023-06-26T03:17:39;25.20;41.00
32147;DHT22;32190;49.112;8.598;2023-06-26T03:23:30;25.10;41.10
32147;DHT22;32190;49.112;8.598;2023-06-26T03:29:21;25.00;41.20
32147;DHT22;32190;49.112;8.598;2023-06-26T03:35:11;25.00;41.20
32147;DHT22;32190;49.112;8.598;2023-06-26T03:41:02;24.90;41.20
32147;DHT22;32190;49.112;8.598;2023-06-26T03:46:53;24.80;41.30
32147;DHT22;32190;49.112;8.598;2023-06-26T03:52:44;24.70;41.50
32147;DHT22;32190;49.112;8.598;2023-06-26T03:58:34;24.60;41.50
32147;DHT22;32190;49.112;8.598;2023-06-26T04:04:25;24.60;41.60
32147;DHT22;32190;49.112;8.598;2023-06-26T04:10:16;24.50;41.70
32147;DHT22;32190;49.112;8.598;2023-06-26T04:16:07;24.40;41.90
32147;DHT22;32190;49.112;8.598;2023-06-26T04:21:57;24.10;42.20
32147;DHT22;32190;49.112;8.598;2023-06-26T04:27:48;23.90;42.60
32147;DHT22;32190;49.112;8.598;2023-06-26T04:33:39;23.70;43.00
32147;DHT22;32190;49.112;8.598;2023-06-26T04:39:30;23.60;43.30
32147;DHT22;32190;49.112;8.598;2023-06-26T04:45:21;23.70;43.60
32147;DHT22;32190;49.112;8.598;2023-06-26T04:51:11;23.70;43.80
32147;DHT22;32190;49.112;8.598;2023-06-26T04:57:02;23.70;44.10
32147;DHT22;32190;49.112;8.598;2023-06-26T05:02:53;23.70;44.30
32147;DHT22;32190;49.112;8.598;2023-06-26T05:08:50;23.80;44.60
32147;DHT22;32190;49.112;8.598;2023-06-26T05:14:41;24.00;44.80
32147;DHT22;32190;49.112;8.598;2023-06-26T05:20:31;24.60;45.30
32147;DHT22;32190;49.112;8.598;2023-06-26T05:26:22;25.70;45.50
32147;DHT22;32190;49.112;8.598;2023-06-26T05:32:15;27.20;44.90
32147;DHT22;32190;49.112;8.598;2023-06-26T05:38:08;28.80;43.70
32147;DHT22;32190;49.112;8.598;2023-06-26T05:43:59;30.20;42.50
32147;DHT22;32190;49.112;8.598;2023-06-26T05:49:49;31.50;41.20
32147;DHT22;32190;49.112;8.598;2023-06-26T05:55:40;32.60;40.00
32147;DHT22;32190;49.112;8.598;2023-06-26T06:01:32;33.40;38.90
32147;DHT22;32190;49.112;8.598;2023-06-26T06:07:24;34.10;38.40
32147;DHT22;32190;49.112;8.598;2023-06-26T06:13:15;34.90;37.50
32147;DHT22;32190;49.112;8.598;2023-06-26T06:19:05;35.50;36.90
32147;DHT22;32190;49.112;8.598;2023-06-26T06:24:58;35.90;36.20
32147;DHT22;32190;49.112;8.598;2023-06-26T06:30:48;36.30;35.70
32147;DHT22;32190;49.112;8.598;2023-06-26T06:36:39;36.60;35.50
32147;DHT22;32190;49.112;8.598;2023-06-26T06:42:30;36.80;34.90
32147;DHT22;32190;49.112;8.598;2023-06-26T06:48:20;36.90;34.60
32147;DHT22;32190;49.112;8.598;2023-06-26T06:54:11;36.90;34.10
32147;DHT22;32190;49.112;8.598;2023-06-26T07:00:05;36.70;33.80
32147;DHT22;32190;49.112;8.598;2023-06-26T07:05:58;36.40;33.40
32147;DHT22;32190;49.112;8.598;2023-06-26T07:11:49;36.00;33.70
32147;DHT22;32190;49.112;8.598;2023-06-26T07:17:39;35.40;33.70
32147;DHT22;32190;49.112;8.598;2023-06-26T07:23:30;34.80;34.30
32147;DHT22;32190;49.112;8.598;2023-06-26T07:29:20;34.30;34.50
32147;DHT22;32190;49.112;8.598;2023-06-26T07:35:11;33.80;34.80
32147;DHT22;32190;49.112;8.598;2023-06-26T07:41:02;33.50;35.20
32147;DHT22;32190;49.112;8.598;2023-06-26T07:46:52;33.10;35.50
32147;DHT22;32190;49.112;8.598;2023-06-26T07:52:43;33.00;35.70
32147;DHT22;32190;49.112;8.598;2023-06-26T07:58:33;32.70;35.70
32147;DHT22;32190;49.112;8.598;2023-06-26T08:04:25;32.50;35.70
32147;DHT22;32190;49.112;8.598;2023-06-26T08:10:16;32.30;35.90
32147;DHT22;32190;49.112;8.598;2023-06-26T08:16:07;32.20;36.00
32147;DHT22;32190;49.112;8.598;2023-06-26T08:21:57;32.10;36.50
32147;DHT22;32190;49.112;8.598;2023-06-26T08:27:48;32.00;36.50
32147;DHT22;32190;49.112;8.598;2023-06-26T08:33:39;32.00;36.60
32147;DHT22;32190;49.112;8.598;2023-06-26T08:39:29;31.90;36.50
32147;DHT22;32190;49.112;8.598;2023-06-26T08:45:20;31.90;36.90
32147;DHT22;32190;49.112;8.598;2023-06-26T08:51:13;31.80;36.80
32147;DHT22;32190;49.112;8.598;2023-06-26T08:57:05;31.80;36.90
32147;DHT22;32190;49.112;8.598;2023-06-26T09:02:57;31.60;37.20
32147;DHT22;32190;49.112;8.598;2023-06-26T09:08:48;31.50;37.40
32147;DHT22;32190;49.112;8.598;2023-06-26T09:14:39;31.50;37.70
32147;DHT22;32190;49.112;8.598;2023-06-26T09:20:30;31.40;37.80
32147;DHT22;32190;49.112;8.598;2023-06-26T09:26:23;31.30;38.00
32147;DHT22;32190;49.112;8.598;2023-06-26T09:32:14;31.20;38.00
32147;DHT22;32190;49.112;8.598;2023-06-26T09:38:04;31.20;38.20
32147;DHT22;32190;49.112;8.598;2023-06-26T09:43:58;31.20;38.60
32147;DHT22;32190;49.112;8.598;2023-06-26T09:49:51;31.20;38.70
32147;DHT22;32190;49.112;8.598;2023-06-26T09:55:42;31.10;38.80
32147;DHT22;32190;49.112;8.598;2023-06-26T10:01:41;31.10;39.00
32147;DHT22;32190;49.112;8.598;2023-06-26T10:07:32;31.10;39.30
32147;DHT22;32190;49.112;8.598;2023-06-26T10:13:29;31.10;39.50
32147;DHT22;32190;49.112;8.598;2023-06-26T10:19:21;31.20;39.70
32147;DHT22;32190;49.112;8.598;2023-06-26T10:25:18;31.30;39.60
32147;DHT22;32190;49.112;8.598;2023-06-26T10:31:10;31.30;39.90
32147;DHT22;32190;49.112;8.598;2023-06-26T10:37:02;31.40;39.90
32147;DHT22;32190;49.112;8.598;2023-06-26T10:43:08;31.50;40.00
32147;DHT22;32190;49.112;8.598;2023-06-26T10:49:00;31.60;40.70
32147;DHT22;32190;49.112;8.598;2023-06-26T10:54:54;31.70;39.80
32147;DHT22;32190;49.112;8.598;2023-06-26T11:00:49;31.80;40.00
32147;DHT22;32190;49.112;8.598;2023-06-26T11:06:40;31.90;39.90
32147;DHT22;32190;49.112;8.598;2023-06-26T11:12:44;32.00;39.70
32147;DHT22;32190;49.112;8.598;2023-06-26T11:18:38;32.00;39.60
32147;DHT22;32190;49.112;8.598;2023-06-26T11:24:29;32.00;39.30
32147;DHT22;32190;49.112;8.598;2023-06-26T11:30:25;32.00;39.40
32147;DHT22;32190;49.112;8.598;2023-06-26T11:36:16;32.00;39.40
32147;DHT22;32190;49.112;8.598;2023-06-26T11:42:06;32.10;39.30
32147;DHT22;32190;49.112;8.598;2023-06-26T11:47:57;32.20;39.40
32147;DHT22;32190;49.112;8.598;2023-06-26T11:53:49;32.20;39.30
32147;DHT22;32190;49.112;8.598;2023-06-26T11:59:53;32.40;39.00
32147;DHT22;32190;49.112;8.598;2023-06-26T12:05:44;32.40;39.00
32147;DHT22;32190;49.112;8.598;2023-06-26T12:11:37;32.60;39.10
32147;DHT22;32190;49.112;8.598;2023-06-26T12:17:28;32.70;38.70
32147;DHT22;32190;49.112;8.598;2023-06-26T12:23:19;32.80;38.30
32147;DHT22;32190;49.112;8.598;2023-06-26T12:29:13;32.80;38.10
32147;DHT22;32190;49.112;8.598;2023-06-26T12:35:04;32.90;37.90
32147;DHT22;32190;49.112;8.598;2023-06-26T12:40:56;32.90;37.60
32147;DHT22;32190;49.112;8.598;2023-06-26T12:46:53;32.90;37.20
32147;DHT22;32190;49.112;8.598;2023-06-26T12:52:44;32.90;37.40
32147;DHT22;32190;49.112;8.598;2023-06-26T12:58:35;33.00;37.00
32147;DHT22;32190;49.112;8.598;2023-06-26T13:04:27;33.10;36.60
32147;DHT22;32190;49.112;8.598;2023-06-26T13:10:18;33.10;36.00
32147;DHT22;32190;49.112;8.598;2023-06-26T13:16:08;33.10;36.20
32147;DHT22;32190;49.112;8.598;2023-06-26T13:21:59;33.20;35.80
32147;DHT22;32190;49.112;8.598;2023-06-26T13:27:50;33.30;35.60
32147;DHT22;32190;49.112;8.598;2023-06-26T13:33:41;33.30;35.90
32147;DHT22;32190;49.112;8.598;2023-06-26T13:39:31;33.30;35.00
32147;DHT22;32190;49.112;8.598;2023-06-26T13:45:22;33.30;34.60
32147;DHT22;32190;49.112;8.598;2023-06-26T13:51:12;33.30;35.40
32147;DHT22;32190;49.112;8.598;2023-06-26T13:57:03;33.20;34.90
32147;DHT22;32190;49.112;8.598;2023-06-26T14:02:55;33.30;34.60
32147;DHT22;32190;49.112;8.598;2023-06-26T14:08:46;33.40;34.60
32147;DHT22;32190;49.112;8.598;2023-06-26T14:14:37;33.50;34.30
32147;DHT22;32190;49.112;8.598;2023-06-26T14:20:27;33.50;34.20
32147;DHT22;32190;49.112;8.598;2023-06-26T14:26:19;33.60;34.10
32147;DHT22;32190;49.112;8.598;2023-06-26T14:32:10;33.60;33.70
32147;DHT22;32190;49.112;8.598;2023-06-26T14:38:01;33.70;34.00
32147;DHT22;32190;49.112;8.598;2023-06-26T14:43:51;33.70;33.00
32147;DHT22;32190;49.112;8.598;2023-06-26T14:49:42;33.60;32.80
32147;DHT22;32190;49.112;8.598;2023-06-26T14:55:33;33.60;32.80
32147;DHT22;32190;49.112;8.598;2023-06-26T15:01:24;33.70;31.70
32147;DHT22;32190;49.112;8.598;2023-06-26T15:07:14;33.60;30.80
32147;DHT22;32190;49.112;8.598;2023-06-26T15:13:05;33.60;30.50
32147;DHT22;32190;49.112;8.598;2023-06-26T15:18:56;33.60;30.50
32147;DHT22;32190;49.112;8.598;2023-06-26T15:24:47;33.50;30.20
32147;DHT22;32190;49.112;8.598;2023-06-26T15:30:37;33.50;30.30
32147;DHT22;32190;49.112;8.598;2023-06-26T15:36:28;33.60;29.80
32147;DHT22;32190;49.112;8.598;2023-06-26T15:42:18;33.60;29.20
32147;DHT22;32190;49.112;8.598;2023-06-26T15:48:09;33.50;29.10
32147;DHT22;32190;49.112;8.598;2023-06-26T15:54:00;33.50;28.90
32147;DHT22;32190;49.112;8.598;2023-06-26T15:59:50;33.40;29.10
32147;DHT22;32190;49.112;8.598;2023-06-26T16:05:42;33.30;29.00
32147;DHT22;32190;49.112;8.598;2023-06-26T16:11:32;33.10;28.30
32147;DHT22;32190;49.112;8.598;2023-06-26T16:17:23;33.00;28.80
32147;DHT22;32190;49.112;8.598;2023-06-26T16:23:13;32.90;28.40
32147;DHT22;32190;49.112;8.598;2023-06-26T16:29:05;32.80;28.40
32147;DHT22;32190;49.112;8.598;2023-06-26T16:34:55;32.70;28.70
32147;DHT22;32190;49.112;8.598;2023-06-26T16:40:46;32.70;28.70
32147;DHT22;32190;49.112;8.598;2023-06-26T16:46:36;32.60;28.40
32147;DHT22;32190;49.112;8.598;2023-06-26T16:52:27;32.60;28.30
32147;DHT22;32190;49.112;8.598;2023-06-26T16:58:18;32.60;28.20
32147;DHT22;32190;49.112;8.598;2023-06-26T17:04:09;32.60;28.10
32147;DHT22;32190;49.112;8.598;2023-06-26T17:09:59;32.40;28.40
32147;DHT22;32190;49.112;8.598;2023-06-26T17:15:50;32.30;28.50
32147;DHT22;32190;49.112;8.598;2023-06-26T17:21:40;32.30;28.20
32147;DHT22;32190;49.112;8.598;2023-06-26T17:27:31;32.20;28.40
32147;DHT22;32190;49.112;8.598;2023-06-26T17:33:22;32.10;28.40
32147;DHT22;32190;49.112;8.598;2023-06-26T17:39:13;32.00;28.30
32147;DHT22;32190;49.112;8.598;2023-06-26T17:45:03;32.00;28.30
32147;DHT22;32190;49.112;8.598;2023-06-26T17:50:54;31.90;28.30
32147;DHT22;32190;49.112;8.598;2023-06-26T17:56:45;31.80;28.40
32147;DHT22;32190;49.112;8.598;2023-06-26T18:02:37;31.80;28.60
32147;DHT22;32190;49.112;8.598;2023-06-26T18:08:30;31.80;28.90
32147;DHT22;32190;49.112;8.598;2023-06-26T18:14:21;31.70;29.00
32147;DHT22;32190;49.112;8.598;2023-06-26T18:20:12;31.80;29.10
32147;DHT22;32190;49.112;8.598;2023-06-26T18:26:03;31.80;29.00
32147;DHT22;32190;49.112;8.598;2023-06-26T18:31:54;31.80;29.20
32147;DHT22;32190;49.112;8.598;2023-06-26T18:37:44;31.70;29.20
32147;DHT22;32190;49.112;8.598;2023-06-26T18:43:35;31.60;29.20
32147;DHT22;32190;49.112;8.598;2023-06-26T18:49:29;31.60;29.40
32147;DHT22;32190;49.112;8.598;2023-06-26T18:55:20;31.50;29.40
32147;DHT22;32190;49.112;8.598;2023-06-26T19:01:10;31.40;29.40
32147;DHT22;32190;49.112;8.598;2023-06-26T19:07:01;31.30;29.60
32147;DHT22;32190;49.112;8.598;2023-06-26T19:12:52;31.20;29.70
32147;DHT22;32190;49.112;8.598;2023-06-26T19:18:44;31.10;29.70
32147;DHT22;32190;49.112;8.598;2023-06-26T19:24:34;31.00;30.00
32147;DHT22;32190;49.112;8.598;2023-06-26T19:30:25;30.90;29.90
32147;DHT22;32190;49.112;8.598;2023-06-26T19:36:15;30.90;30.00
32147;DHT22;32190;49.112;8.598;2023-06-26T19:42:07;30.80;30.10
32147;DHT22;32190;49.112;8.598;2023-06-26T19:47:57;30.70;30.00
32147;DHT22;32190;49.112;8.598;2023-06-26T19:53:48;30.60;30.20
32147;DHT22;32190;49.112;8.598;2023-06-26T19:59:39;30.50;30.90
32147;DHT22;32190;49.112;8.598;2023-06-26T20:05:30;30.40;30.50
32147;DHT22;32190;49.112;8.598;2023-06-26T20:11:21;30.30;30.50
32147;DHT22;32190;49.112;8.598;2023-06-26T20:17:11;30.30;30.70
32147;DHT22;32190;49.112;8.598;2023-06-26T20:23:02;30.20;30.60
32147;DHT22;32190;49.112;8.598;2023-06-26T20:28:53;30.10;30.60
32147;DHT22;32190;49.112;8.598;2023-06-26T20:34:43;30.00;30.90
32147;DHT22;32190;49.112;8.598;2023-06-26T20:40:34;29.90;31.00
32147;DHT22;32190;49.112;8.598;2023-06-26T20:46:25;29.80;30.90
32147;DHT22;32190;49.112;8.598;2023-06-26T20:52:23;29.50;31.30
32147;DHT22;32190;49.112;8.598;2023-06-26T20:58:15;29.40;31.60
32147;DHT22;32190;49.112;8.598;2023-06-26T21:04:06;29.30;31.60
32147;DHT22;32190;49.112;8.598;2023-06-26T21:09:57;29.40;31.90
32147;DHT22;32190;49.112;8.598;2023-06-26T21:15:49;29.40;31.90
32147;DHT22;32190;49.112;8.598;2023-06-26T21:21:40;29.40;32.00
32147;DHT22;32190;49.112;8.598;2023-06-26T21:27:30;29.50;32.00
32147;DHT22;32190;49.112;8.598;2023-06-26T21:33:21;29.50;32.00
32147;DHT22;32190;49.112;8.598;2023-06-26T21:39:12;29.40;32.10
32147;DHT22;32190;49.112;8.598;2023-06-26T21:45:02;29.30;32.20
32147;DHT22;32190;49.112;8.598;2023-06-26T21:50:54;29.30;32.20
32147;DHT22;32190;49.112;8.598;2023-06-26T21:56:44;29.30;32.20
32147;DHT22;32190;49.112;8.598;2023-06-26T22:02:35;29.30;32.20
32147;DHT22;32190;49.112;8.598;2023-06-26T22:08:25;29.20;32.40
32147;DHT22;32190;49.112;8.598;2023-06-26T22:14:16;29.20;32.60
32147;DHT22;32190;49.112;8.598;2023-06-26T22:20:07;29.20;32.60
32147;DHT22;32190;49.112;8.598;2023-06-26T22:25:59;29.10;32.50
32147;DHT22;32190;49.112;8.598;2023-06-26T22:31:50;28.90;32.50
32147;DHT22;32190;49.112;8.598;2023-06-26T22:37:41;28.70;32.80
32147;DHT22;32190;49.112;8.598;2023-06-26T22:43:31;28.50;33.20
32147;DHT22;32190;49.112;8.598;2023-06-26T22:49:23;28.40;33.20
32147;DHT22;32190;49.112;8.598;2023-06-26T22:55:14;28.40;33.40
32147;DHT22;32190;49.112;8.598;2023-06-26T23:01:04;28.30;33.40
32147;DHT22;32190;49.112;8.598;2023-06-26T23:06:55;28.10;33.50
32147;DHT22;32190;49.112;8.598;2023-06-26T23:12:47;28.00;33.80
32147;DHT22;32190;49.112;8.598;2023-06-26T23:18:38;28.00;34.00
32147;DHT22;32190;49.112;8.598;2023-06-26T23:24:29;27.90;33.80
32147;DHT22;32190;49.112;8.598;2023-06-26T23:30:23;27.80;33.60
32147;DHT22;32190;49.112;8.598;2023-06-26T23:36:14;27.80;33.40
32147;DHT22;32190;49.112;8.598;2023-06-26T23:42:06;27.70;33.20
32147;DHT22;32190;49.112;8.598;2023-06-26T23:47:57;27.60;33.10
32147;DHT22;32190;49.112;8.598;2023-06-26T23:53:48;27.60;33.10
32147;DHT22;32190;49.112;8.598;2023-06-26T23:59:38;27.40;33.10
